createdAt,value
2018-09-14T00:01:57.960Z,24.73
2018-09-14T00:04:25.657Z,24.73
2018-09-14T00:06:53.344Z,24.72
2018-09-14T00:09:21.050Z,24.72
2018-09-14T00:11:48.761Z,24.71
2018-09-14T00:14:16.473Z,24.72
2018-09-14T00:16:44.205Z,24.69
2018-09-14T00:19:11.862Z,24.70
2018-09-14T00:21:39.537Z,24.71
2018-09-14T00:24:07.225Z,24.70
2018-09-14T00:26:34.949Z,24.70
2018-09-14T00:29:02.577Z,24.70
2018-09-14T00:31:30.321Z,24.70
2018-09-14T00:33:57.976Z,24.70
2018-09-14T00:36:25.695Z,24.69
2018-09-14T00:38:53.375Z,24.69
2018-09-14T00:41:21.064Z,24.71
2018-09-14T00:43:49.017Z,24.70
2018-09-14T00:46:16.693Z,24.70
2018-09-14T00:48:44.468Z,24.71
2018-09-14T00:51:12.121Z,24.72
2018-09-14T00:53:39.814Z,24.71
2018-09-14T00:56:07.513Z,24.72
2018-09-14T00:58:35.287Z,24.71
2018-09-14T01:01:03.013Z,24.71
2018-09-14T01:03:30.721Z,24.69
2018-09-14T01:05:58.442Z,24.70
2018-09-14T01:08:26.193Z,24.70
2018-09-14T01:10:53.937Z,24.71
2018-09-14T01:13:21.635Z,24.70
2018-09-14T01:15:49.368Z,24.70
2018-09-14T01:18:17.057Z,24.69
2018-09-14T01:20:44.794Z,24.70
2018-09-14T01:23:12.501Z,24.71
2018-09-14T01:25:40.212Z,24.70
2018-09-14T01:28:07.891Z,24.70
2018-09-14T01:30:35.786Z,24.70
2018-09-14T01:33:03.469Z,24.71
2018-09-14T01:35:36.413Z,24.71
2018-09-14T01:38:04.171Z,24.71
2018-09-14T01:40:31.969Z,24.69
2018-09-14T01:42:59.643Z,24.70
2018-09-14T01:45:27.354Z,24.70
2018-09-14T01:47:55.041Z,24.69
2018-09-14T01:50:22.745Z,24.70
2018-09-14T01:52:50.406Z,24.69
2018-09-14T01:55:18.127Z,24.70
2018-09-14T01:57:45.858Z,24.69
2018-09-14T02:00:13.690Z,24.69
2018-09-14T02:02:41.402Z,24.69
2018-09-14T02:05:09.123Z,24.69
2018-09-14T02:07:36.980Z,24.68
2018-09-14T02:10:04.729Z,24.68
2018-09-14T02:12:32.433Z,24.67
2018-09-14T02:15:00.156Z,24.68
2018-09-14T02:17:27.822Z,24.66
2018-09-14T02:19:55.563Z,24.67
2018-09-14T02:22:23.241Z,24.66
2018-09-14T02:24:51.013Z,24.65
2018-09-14T02:27:18.745Z,24.66
2018-09-14T02:29:46.422Z,24.65
2018-09-14T02:32:14.092Z,24.66
2018-09-14T02:34:41.866Z,24.66
2018-09-14T02:37:09.570Z,24.65
2018-09-14T02:39:37.256Z,24.65
2018-09-14T02:42:04.986Z,24.66
2018-09-14T02:44:32.667Z,24.65
2018-09-14T02:47:00.341Z,24.65
2018-09-14T02:49:28.041Z,24.64
2018-09-14T02:51:55.744Z,24.64
2018-09-14T02:54:23.544Z,24.65
2018-09-14T02:56:51.253Z,24.65
2018-09-14T02:59:18.999Z,24.65
2018-09-14T03:01:46.771Z,24.63
2018-09-14T03:04:14.487Z,24.64
2018-09-14T03:06:42.205Z,24.62
2018-09-14T03:09:10.273Z,24.63
2018-09-14T03:11:38.110Z,24.62
2018-09-14T03:14:05.914Z,24.61
2018-09-14T03:16:33.621Z,24.61
2018-09-14T03:19:01.317Z,24.60
2018-09-14T03:21:29.004Z,24.61
2018-09-14T03:23:56.720Z,24.61
2018-09-14T03:26:24.518Z,24.61
2018-09-14T03:28:52.292Z,24.61
2018-09-14T03:31:20.020Z,24.60
2018-09-14T03:33:47.744Z,24.60
2018-09-14T03:36:15.429Z,24.60
2018-09-14T03:38:43.177Z,24.59
2018-09-14T03:41:10.881Z,24.60
2018-09-14T03:43:38.605Z,24.60
2018-09-14T03:46:06.321Z,24.59
2018-09-14T03:48:34.016Z,24.59
2018-09-14T03:51:01.711Z,24.60
2018-09-14T03:53:29.410Z,24.58
2018-09-14T03:55:57.149Z,24.59
2018-09-14T03:58:24.867Z,24.58
2018-09-14T04:00:52.570Z,24.58
2018-09-14T04:06:05.822Z,24.57
2018-09-14T04:08:33.623Z,24.57
2018-09-14T04:11:01.345Z,24.58
2018-09-14T04:13:29.109Z,24.57
2018-09-14T04:15:56.796Z,24.56
2018-09-14T04:18:24.661Z,24.56
2018-09-14T04:20:52.370Z,24.57
2018-09-14T04:23:20.062Z,24.57
2018-09-14T04:25:47.820Z,24.57
2018-09-14T04:28:15.691Z,24.55
2018-09-14T04:30:43.396Z,24.56
2018-09-14T04:33:11.110Z,24.56
2018-09-14T04:35:38.893Z,24.54
2018-09-14T04:38:06.608Z,24.53
2018-09-14T04:40:34.278Z,24.54
2018-09-14T04:43:02.109Z,24.55
2018-09-14T04:45:29.732Z,24.54
2018-09-14T04:47:57.362Z,24.55
2018-09-14T04:50:25.176Z,24.54
2018-09-14T04:52:52.844Z,24.53
2018-09-14T04:55:20.464Z,24.53
2018-09-14T04:57:48.142Z,24.52
2018-09-14T05:00:15.770Z,24.53
2018-09-14T05:02:43.381Z,24.52
2018-09-14T05:05:11.021Z,24.53
2018-09-14T05:07:38.704Z,24.53
2018-09-14T05:10:06.349Z,24.54
2018-09-14T05:12:34.002Z,24.53
2018-09-14T05:15:01.622Z,24.53
2018-09-14T05:17:29.254Z,24.54
2018-09-14T05:19:56.915Z,24.53
2018-09-14T05:22:24.545Z,24.52
2018-09-14T05:24:52.162Z,24.52
2018-09-14T05:27:19.805Z,24.52
2018-09-14T05:29:47.435Z,24.51
2018-09-14T05:32:15.074Z,24.51
2018-09-14T05:34:42.693Z,24.51
2018-09-14T05:37:10.318Z,24.52
2018-09-14T05:39:37.929Z,24.52
2018-09-14T05:42:05.569Z,24.52
2018-09-14T05:44:33.197Z,24.51
2018-09-14T05:47:00.848Z,24.50
2018-09-14T05:49:28.490Z,24.51
2018-09-14T05:51:56.105Z,24.51
2018-09-14T05:54:23.757Z,24.51
2018-09-14T05:56:51.580Z,24.51
2018-09-14T05:59:19.233Z,24.51
2018-09-14T06:01:46.857Z,24.51
2018-09-14T06:04:14.464Z,24.51
2018-09-14T06:06:42.186Z,24.51
2018-09-14T06:09:11.134Z,24.51
2018-09-14T06:11:38.963Z,24.51
2018-09-14T06:14:06.873Z,24.51
2018-09-14T06:16:34.738Z,24.50
2018-09-14T06:19:02.724Z,24.51
2018-09-14T06:21:30.493Z,24.51
2018-09-14T06:23:58.178Z,24.51
2018-09-14T06:26:25.948Z,24.50
2018-09-14T06:28:53.710Z,24.52
2018-09-14T06:31:21.415Z,24.51
2018-09-14T06:33:49.190Z,24.51
2018-09-14T06:36:16.949Z,24.52
2018-09-14T06:38:44.694Z,24.52
2018-09-14T06:41:12.341Z,24.52
2018-09-14T06:43:40.061Z,24.52
2018-09-14T06:46:07.745Z,24.52
2018-09-14T06:48:35.459Z,24.54
2018-09-14T06:51:03.178Z,24.54
2018-09-14T06:53:30.995Z,24.55
2018-09-14T06:55:58.725Z,24.56
2018-09-14T06:58:26.478Z,24.59
2018-09-14T07:00:54.199Z,24.60
2018-09-14T07:03:21.925Z,24.62
2018-09-14T07:05:49.646Z,24.63
2018-09-14T07:08:17.414Z,24.64
2018-09-14T07:10:45.176Z,24.68
2018-09-14T07:13:12.968Z,24.68
2018-09-14T07:15:40.711Z,24.71
2018-09-14T07:18:08.441Z,24.73
2018-09-14T07:20:36.205Z,24.80
2018-09-14T07:23:03.946Z,24.83
2018-09-14T07:25:31.664Z,24.78
2018-09-14T07:27:59.326Z,24.77
2018-09-14T07:30:27.065Z,24.75
2018-09-14T07:32:54.833Z,24.77
2018-09-14T07:35:22.613Z,24.91
2018-09-14T07:37:50.321Z,24.85
2018-09-14T07:40:18.002Z,24.75
2018-09-14T07:42:45.720Z,24.88
2018-09-14T07:45:13.507Z,24.81
2018-09-14T07:47:41.188Z,24.78
2018-09-14T07:50:08.911Z,24.76
2018-09-14T07:52:36.657Z,24.74
2018-09-14T07:55:04.409Z,24.71
2018-09-14T07:57:32.153Z,24.70
2018-09-14T07:59:59.904Z,24.68
2018-09-14T08:02:27.624Z,24.68
2018-09-14T08:04:55.318Z,24.67
2018-09-14T08:07:22.982Z,24.66
2018-09-14T08:09:50.630Z,24.67
2018-09-14T08:12:18.421Z,24.67
2018-09-14T08:14:46.212Z,24.66
2018-09-14T08:17:13.933Z,24.66
2018-09-14T08:19:41.671Z,24.66
2018-09-14T08:22:09.374Z,24.68
2018-09-14T08:24:37.214Z,24.71
2018-09-14T08:27:04.955Z,24.74
2018-09-14T08:29:32.677Z,24.76
2018-09-14T08:32:00.329Z,24.72
2018-09-14T08:34:27.956Z,24.72
2018-09-14T08:36:55.573Z,24.71
2018-09-14T08:39:23.192Z,24.69
2018-09-14T08:41:50.809Z,24.69
2018-09-14T08:44:18.437Z,24.69
2018-09-14T08:46:46.081Z,24.61
2018-09-14T08:49:13.753Z,24.22
2018-09-14T08:51:41.353Z,23.99
2018-09-14T08:54:08.987Z,23.85
2018-09-14T08:56:36.597Z,23.58
2018-09-14T08:59:04.212Z,23.75
2018-09-14T09:01:31.829Z,23.82
2018-09-14T09:03:59.579Z,23.24
2018-09-14T09:06:27.193Z,23.57
2018-09-14T09:08:54.851Z,23.17
2018-09-14T09:11:22.542Z,23.20
2018-09-14T09:13:50.206Z,23.09
2018-09-14T09:16:17.832Z,23.37
2018-09-14T09:18:45.461Z,22.82
2018-09-14T09:21:13.203Z,23.27
2018-09-14T09:23:41.133Z,23.31
2018-09-14T09:26:08.780Z,23.52
2018-09-14T09:28:36.409Z,23.48
2018-09-14T09:31:04.032Z,23.60
2018-09-14T09:33:31.698Z,23.39
2018-09-14T09:35:59.325Z,23.40
2018-09-14T09:38:27.001Z,23.42
2018-09-14T09:40:54.625Z,23.64
2018-09-14T09:43:22.420Z,23.76
2018-09-14T09:45:49.954Z,23.96
2018-09-14T09:48:17.556Z,23.92
2018-09-14T09:50:45.181Z,23.58
2018-09-14T09:53:12.821Z,23.47
2018-09-14T09:55:40.441Z,23.76
2018-09-14T09:58:08.580Z,23.94
2018-09-14T10:01:45.577Z,24.01
2018-09-14T10:04:18.405Z,23.89
2018-09-14T10:06:46.020Z,23.73
2018-09-14T10:09:13.640Z,23.87
2018-09-14T10:11:41.270Z,23.92
2018-09-14T10:14:08.967Z,23.86
2018-09-14T10:16:36.575Z,23.72
2018-09-14T10:19:04.193Z,23.76
2018-09-14T10:21:31.846Z,23.77
2018-09-14T10:23:59.457Z,23.80
2018-09-14T10:26:27.080Z,23.75
2018-09-14T10:28:54.717Z,23.75
2018-09-14T10:31:22.574Z,23.76
2018-09-14T10:33:50.237Z,23.61
2018-09-14T10:36:17.846Z,23.71
2018-09-14T10:38:45.476Z,23.71
2018-09-14T10:41:13.093Z,23.78
2018-09-14T10:43:40.736Z,23.80
2018-09-14T10:46:08.392Z,23.81
2018-09-14T10:48:36.067Z,23.72
2018-09-14T10:51:03.661Z,23.46
2018-09-14T10:53:31.282Z,23.60
2018-09-14T10:55:58.998Z,23.78
2018-09-14T10:58:26.681Z,23.85
2018-09-14T11:00:54.486Z,23.83
2018-09-14T11:03:22.051Z,23.73
2018-09-14T11:05:49.673Z,23.73
2018-09-14T11:08:17.301Z,23.91
2018-09-14T11:10:44.925Z,23.89
2018-09-14T11:13:12.555Z,23.92
2018-09-14T11:15:40.195Z,23.87
2018-09-14T11:18:07.822Z,23.88
2018-09-14T11:20:35.597Z,23.85
2018-09-14T11:23:03.276Z,23.79
2018-09-14T11:25:30.916Z,23.84
2018-09-14T11:27:58.602Z,23.83
2018-09-14T11:30:26.193Z,23.93
2018-09-14T11:32:53.868Z,24.02
2018-09-14T11:35:21.612Z,24.10
2018-09-14T11:37:49.452Z,24.13
2018-09-14T11:40:17.105Z,24.17
2018-09-14T11:42:44.829Z,24.19
2018-09-14T11:45:12.662Z,24.20
2018-09-14T11:47:40.349Z,24.21
2018-09-14T11:50:08.018Z,24.22
2018-09-14T11:52:35.732Z,24.22
2018-09-14T11:55:03.473Z,24.23
2018-09-14T11:57:31.179Z,24.23
2018-09-14T11:59:58.815Z,24.25
2018-09-14T12:02:26.484Z,24.25
2018-09-14T12:04:55.481Z,24.26
2018-09-14T12:07:23.200Z,24.28
2018-09-14T12:09:50.903Z,24.29
2018-09-14T12:12:18.597Z,24.30
2018-09-14T12:14:46.421Z,24.30
2018-09-14T12:17:14.146Z,24.32
2018-09-14T12:19:41.855Z,24.36
2018-09-14T12:22:09.707Z,24.39
2018-09-14T12:24:37.462Z,24.41
2018-09-14T12:27:05.654Z,24.44
2018-09-14T12:29:33.387Z,24.44
2018-09-14T12:32:01.069Z,24.43
2018-09-14T12:34:28.822Z,24.43
2018-09-14T12:36:56.526Z,24.42
2018-09-14T12:39:24.213Z,24.43
2018-09-14T12:41:51.917Z,24.43
2018-09-14T12:44:19.638Z,24.45
2018-09-14T12:46:47.384Z,24.45
2018-09-14T12:49:15.099Z,24.45
2018-09-14T12:51:42.890Z,24.47
2018-09-14T12:54:10.549Z,24.45
2018-09-14T12:56:38.272Z,24.45
2018-09-14T12:59:05.983Z,24.46
2018-09-14T13:01:33.741Z,24.47
2018-09-14T13:04:01.430Z,24.46
2018-09-14T13:06:29.182Z,24.46
2018-09-14T13:08:56.904Z,24.47
2018-09-14T13:11:24.585Z,24.48
2018-09-14T13:13:52.288Z,24.46
2018-09-14T13:16:19.976Z,24.46
2018-09-14T13:18:48.038Z,24.45
2018-09-14T13:21:15.751Z,24.48
2018-09-14T13:23:43.452Z,24.49
2018-09-14T13:26:11.153Z,24.49
2018-09-14T13:28:38.821Z,24.49
2018-09-14T13:31:06.545Z,24.49
2018-09-14T13:33:34.205Z,24.48
2018-09-14T13:36:01.985Z,24.50
2018-09-14T13:38:29.688Z,24.50
2018-09-14T13:40:57.400Z,24.52
2018-09-14T13:43:25.075Z,24.52
2018-09-14T13:45:52.757Z,24.54
2018-09-14T13:48:20.458Z,24.56
2018-09-14T13:50:48.161Z,24.57
2018-09-14T13:53:15.909Z,24.58
2018-09-14T13:55:43.593Z,24.59
2018-09-14T13:58:11.273Z,24.58
2018-09-14T14:00:38.967Z,24.57
2018-09-14T14:03:06.942Z,24.57
2018-09-14T14:05:34.770Z,24.57
2018-09-14T14:08:02.461Z,24.57
2018-09-14T14:10:30.126Z,24.55
2018-09-14T14:12:57.797Z,24.54
2018-09-14T14:15:25.484Z,24.55
2018-09-14T14:17:53.290Z,24.54
2018-09-14T14:20:20.914Z,24.55
2018-09-14T14:22:48.623Z,24.56
2018-09-14T14:25:16.326Z,24.55
2018-09-14T14:27:44.054Z,24.55
2018-09-14T14:30:11.783Z,24.54
2018-09-14T14:32:39.469Z,24.54
2018-09-14T14:35:07.188Z,24.54
2018-09-14T14:37:34.855Z,24.54
2018-09-14T14:40:02.501Z,24.54
2018-09-14T14:42:30.166Z,24.55
2018-09-14T14:44:57.892Z,24.54
2018-09-14T14:47:25.585Z,24.55
2018-09-14T14:49:53.250Z,24.56
2018-09-14T14:52:20.910Z,24.55
2018-09-14T14:54:48.633Z,24.58
2018-09-14T14:57:16.266Z,24.66
2018-09-14T14:59:43.896Z,24.78
2018-09-14T15:02:11.535Z,24.76
2018-09-14T15:04:39.147Z,24.67
2018-09-14T15:07:06.822Z,24.65
2018-09-14T15:09:34.454Z,24.65
2018-09-14T15:12:02.096Z,24.62
2018-09-14T15:14:29.754Z,24.62
2018-09-14T15:16:57.421Z,24.61
2018-09-14T15:19:25.036Z,24.61
2018-09-14T15:21:52.652Z,24.60
2018-09-14T15:24:20.304Z,24.60
2018-09-14T15:26:48.027Z,24.60
2018-09-14T15:29:15.652Z,24.61
2018-09-14T15:31:43.260Z,24.60
2018-09-14T15:34:10.929Z,24.60
2018-09-14T15:36:38.561Z,24.60
2018-09-14T15:39:08.812Z,24.58
2018-09-14T15:41:36.499Z,24.60
2018-09-14T15:44:04.125Z,24.60
2018-09-14T15:46:31.754Z,24.59
2018-09-14T15:48:59.421Z,24.59
2018-09-14T15:51:27.085Z,24.59
2018-09-14T15:53:55.573Z,24.58
2018-09-14T15:56:23.193Z,24.58
2018-09-14T15:58:51.009Z,24.60
2018-09-14T16:01:18.649Z,24.61
2018-09-14T16:03:51.600Z,24.60
2018-09-14T16:06:19.287Z,24.58
2018-09-14T16:08:46.969Z,24.58
2018-09-14T16:11:14.647Z,24.60
2018-09-14T16:13:42.400Z,24.59
2018-09-14T16:16:10.047Z,24.60
2018-09-14T16:18:37.666Z,24.60
2018-09-14T16:21:05.333Z,24.58
2018-09-14T16:23:33.017Z,24.58
2018-09-14T16:26:00.661Z,24.59
2018-09-14T16:28:28.308Z,24.58
2018-09-14T16:30:55.962Z,24.57
2018-09-14T16:33:23.572Z,24.57
2018-09-14T16:35:51.273Z,24.56
2018-09-14T16:38:18.898Z,24.57
2018-09-14T16:40:46.573Z,24.55
2018-09-14T16:43:14.193Z,24.56
2018-09-14T16:45:41.831Z,24.54
2018-09-14T16:48:09.474Z,24.57
2018-09-14T16:50:37.102Z,24.56
2018-09-14T16:53:04.730Z,24.55
2018-09-14T16:55:32.352Z,24.55
2018-09-14T16:57:59.997Z,24.55
2018-09-14T17:00:27.699Z,24.55
2018-09-14T17:02:55.369Z,24.54
2018-09-14T17:05:23.047Z,24.52
2018-09-14T17:07:50.660Z,24.54
2018-09-14T17:10:18.276Z,24.54
2018-09-14T17:12:45.989Z,24.53
2018-09-14T17:15:13.617Z,24.54
2018-09-14T17:17:41.285Z,24.54
2018-09-14T17:20:08.954Z,24.53
2018-09-14T17:22:36.568Z,24.54
2018-09-14T17:25:04.203Z,24.53
2018-09-14T17:27:31.921Z,24.53
2018-09-14T17:29:59.490Z,24.53
2018-09-14T17:32:27.118Z,24.53
2018-09-14T17:34:54.813Z,24.53
2018-09-14T17:37:22.437Z,24.52
2018-09-14T17:39:50.132Z,24.52
2018-09-14T17:42:17.764Z,24.50
2018-09-14T17:44:46.263Z,24.51
2018-09-14T17:47:13.938Z,24.52
2018-09-14T17:49:41.599Z,24.51
2018-09-14T17:52:09.329Z,24.52
2018-09-14T17:54:36.961Z,24.52
2018-09-14T17:57:04.576Z,24.51
2018-09-14T17:59:32.188Z,24.50
2018-09-14T18:01:59.796Z,24.49
2018-09-14T18:04:27.422Z,24.51
2018-09-14T18:06:55.042Z,24.51
2018-09-14T18:09:22.673Z,24.50
2018-09-14T18:11:50.302Z,24.50
2018-09-14T18:14:17.976Z,24.49
2018-09-14T18:16:45.592Z,24.49
2018-09-14T18:19:13.224Z,24.49
2018-09-14T18:21:40.857Z,24.48
2018-09-14T18:24:08.517Z,24.36
2018-09-14T18:26:36.128Z,24.47
2018-09-14T18:29:03.768Z,24.48
2018-09-14T18:31:31.396Z,24.48
2018-09-14T18:33:59.013Z,24.47
2018-09-14T18:36:26.652Z,24.49
2018-09-14T18:38:54.269Z,24.48
2018-09-14T18:41:22.732Z,24.48
2018-09-14T18:43:50.896Z,24.48
2018-09-14T18:46:18.597Z,24.49
2018-09-14T18:48:46.261Z,24.47
2018-09-14T18:51:13.890Z,24.47
2018-09-14T18:53:41.517Z,24.45
2018-09-14T18:56:09.148Z,24.45
2018-09-14T18:58:36.790Z,24.45
2018-09-14T19:01:04.418Z,24.45
2018-09-14T19:03:32.046Z,24.45
2018-09-14T19:05:59.765Z,24.44
2018-09-14T19:08:27.394Z,24.44
2018-09-14T19:10:55.026Z,24.44
2018-09-14T19:13:22.778Z,24.43
2018-09-14T19:15:50.412Z,24.44
2018-09-14T19:18:18.057Z,24.48
2018-09-14T19:20:45.695Z,24.55
2018-09-14T19:23:13.361Z,24.64
2018-09-14T19:25:41.005Z,24.68
2018-09-14T19:28:08.665Z,24.76
2018-09-14T19:30:36.297Z,24.69
2018-09-14T19:33:03.938Z,24.63
2018-09-14T19:35:31.574Z,24.60
2018-09-14T19:37:59.207Z,24.60
2018-09-14T19:40:26.833Z,24.63
2018-09-14T19:42:54.495Z,24.62
2018-09-14T19:45:22.148Z,24.63
2018-09-14T19:47:49.781Z,24.63
2018-09-14T19:50:17.479Z,24.63
2018-09-14T19:52:45.076Z,24.63
2018-09-14T19:55:12.703Z,24.62
2018-09-14T19:57:40.324Z,24.61
2018-09-14T20:00:08.474Z,24.61
2018-09-14T20:02:36.171Z,24.63
2018-09-14T20:05:03.866Z,24.61
2018-09-14T20:07:31.601Z,24.62
2018-09-14T20:09:59.295Z,24.62
2018-09-14T20:12:27.022Z,24.62
2018-09-14T20:14:54.785Z,24.63
2018-09-14T20:17:22.563Z,24.62
2018-09-14T20:19:50.206Z,24.61
2018-09-14T20:22:17.894Z,24.61
2018-09-14T20:24:45.595Z,24.62
2018-09-14T20:27:13.335Z,24.63
2018-09-14T20:29:41.048Z,24.64
2018-09-14T20:32:08.733Z,24.64
2018-09-14T20:34:36.483Z,24.64
2018-09-14T20:37:04.138Z,24.63
2018-09-14T20:39:31.867Z,24.63
2018-09-14T20:41:59.597Z,24.63
2018-09-14T20:44:27.375Z,24.63
2018-09-14T20:46:55.069Z,24.62
2018-09-14T20:49:22.753Z,24.62
2018-09-14T20:51:50.635Z,24.62
2018-09-14T20:54:18.315Z,24.60
2018-09-14T20:56:46.027Z,24.62
2018-09-14T20:59:14.353Z,24.60
2018-09-14T21:01:42.085Z,24.61
2018-09-14T21:04:09.926Z,24.59
2018-09-14T21:06:37.634Z,24.58
2018-09-14T21:09:06.814Z,24.59
2018-09-14T21:11:34.518Z,24.59
2018-09-14T21:14:02.238Z,24.58
2018-09-14T21:16:30.067Z,24.58
2018-09-14T21:18:57.803Z,24.58
2018-09-14T21:21:25.559Z,24.57
2018-09-14T21:23:53.296Z,24.58
2018-09-14T21:26:21.020Z,24.58
2018-09-14T21:28:48.754Z,24.58
2018-09-14T21:31:16.534Z,24.58
2018-09-14T21:33:44.162Z,24.59
2018-09-14T21:36:12.006Z,24.58
2018-09-14T21:38:39.700Z,24.58
2018-09-14T21:41:07.471Z,24.58
2018-09-14T21:43:35.165Z,24.54
2018-09-14T21:46:02.877Z,24.56
2018-09-14T21:48:30.579Z,24.56
2018-09-14T21:50:58.301Z,24.57
2018-09-14T21:53:25.981Z,24.56
2018-09-14T21:55:53.669Z,24.56
2018-09-14T21:58:21.348Z,24.55
2018-09-14T22:00:54.457Z,24.55
2018-09-14T22:03:22.225Z,24.54
2018-09-14T22:05:49.949Z,24.54
2018-09-14T22:08:17.916Z,24.54
2018-09-14T22:10:45.723Z,24.54
2018-09-14T22:13:13.463Z,24.53
2018-09-14T22:15:41.225Z,24.54
2018-09-14T22:18:09.014Z,24.55
2018-09-14T22:20:36.746Z,24.54
2018-09-14T22:23:04.506Z,24.54
2018-09-14T22:25:32.206Z,24.53
2018-09-14T22:27:59.987Z,24.54
2018-09-14T22:30:27.787Z,24.54
2018-09-14T22:32:55.490Z,24.53
2018-09-14T22:35:23.306Z,24.53
2018-09-14T22:37:51.020Z,24.52
2018-09-14T22:40:18.808Z,24.51
2018-09-14T22:42:46.668Z,24.51
2018-09-14T22:45:14.521Z,24.51
2018-09-14T22:47:42.321Z,24.50
2018-09-14T22:50:10.041Z,24.50
2018-09-14T22:52:37.796Z,24.51
2018-09-14T22:55:05.729Z,24.50
2018-09-14T22:57:33.458Z,24.50
2018-09-14T23:00:01.205Z,24.52
2018-09-14T23:02:28.906Z,24.52
2018-09-14T23:04:56.693Z,24.51
2018-09-14T23:07:24.408Z,24.51
2018-09-14T23:09:52.412Z,24.52
2018-09-14T23:12:20.315Z,24.52
2018-09-14T23:14:48.173Z,24.53
2018-09-14T23:17:15.954Z,24.51
2018-09-14T23:19:43.723Z,24.52
2018-09-14T23:22:11.473Z,24.52
2018-09-14T23:24:39.232Z,24.52
2018-09-14T23:27:07.046Z,23.83
2018-09-14T23:29:34.808Z,24.51
2018-09-14T23:32:02.553Z,24.51
2018-09-14T23:34:30.248Z,24.50
2018-09-14T23:36:58.015Z,24.49
2018-09-14T23:39:25.761Z,24.48
2018-09-14T23:41:53.561Z,24.50
2018-09-14T23:44:21.275Z,24.49
2018-09-14T23:46:49.045Z,24.48
2018-09-14T23:49:16.802Z,24.48
2018-09-14T23:51:44.579Z,24.48
2018-09-14T23:54:12.357Z,24.48
2018-09-14T23:56:40.152Z,24.46
2018-09-14T23:59:07.948Z,24.46
